createdAt,value
2018-10-03T00:01:24.223Z,10.90
2018-10-03T00:03:51.327Z,10.90
2018-10-03T00:06:18.421Z,10.90
2018-10-03T00:08:45.515Z,11.00
2018-10-03T00:11:12.590Z,11.00
2018-10-03T00:13:39.744Z,11.00
2018-10-03T00:16:06.823Z,11.10
2018-10-03T00:18:33.814Z,11.10
2018-10-03T00:21:00.923Z,11.20
2018-10-03T03:24:48.831Z,11.10
2018-10-03T03:27:15.896Z,11.20
2018-10-03T03:29:43.091Z,11.20
2018-10-03T03:32:10.208Z,11.20
2018-10-03T03:34:37.356Z,11.20
2018-10-03T03:39:31.415Z,11.20
2018-10-03T03:41:58.547Z,11.20
2018-10-03T03:44:25.628Z,11.20
2018-10-03T03:59:10.988Z,11.20
2018-10-03T04:01:38.091Z,11.10
2018-10-03T04:45:52.208Z,11.10
2018-10-03T04:48:19.315Z,11.40
2018-10-03T04:50:46.426Z,11.30
2018-10-03T04:53:13.504Z,11.30
2018-10-03T04:55:40.599Z,11.20
2018-10-03T04:58:07.728Z,11.20
2018-10-03T05:00:34.867Z,11.20
2018-10-03T05:03:01.959Z,11.20
2018-10-03T05:05:29.063Z,11.10
2018-10-03T05:07:56.075Z,11.10
2018-10-03T05:10:23.239Z,11.20
2018-10-03T05:12:50.388Z,11.20
2018-10-03T05:15:18.505Z,11.20
2018-10-03T05:17:45.618Z,11.20
2018-10-03T05:20:13.719Z,11.20
2018-10-03T05:22:41.167Z,11.30
2018-10-03T05:25:08.323Z,11.30
2018-10-03T05:27:35.431Z,11.30
2018-10-03T05:37:23.371Z,11.20
2018-10-03T05:39:50.479Z,10.90
2018-10-03T05:42:17.569Z,10.90
2018-10-03T05:44:44.679Z,10.80
2018-10-03T05:47:11.751Z,10.70
2018-10-03T05:49:38.791Z,10.70
2018-10-03T05:52:05.911Z,10.70
2018-10-03T05:54:33.069Z,10.60
2018-10-03T05:57:00.135Z,10.60
2018-10-03T05:59:27.207Z,10.60
2018-10-03T06:01:54.239Z,10.60
2018-10-03T06:04:21.407Z,10.60
2018-10-03T06:06:48.508Z,10.70
2018-10-03T06:09:15.564Z,10.70
2018-10-03T06:11:42.991Z,10.70
2018-10-03T06:14:10.391Z,10.70
2018-10-03T06:16:37.498Z,10.70
2018-10-03T06:19:04.593Z,10.70
2018-10-03T06:21:33.151Z,10.70
2018-10-03T06:24:00.212Z,10.70
2018-10-03T06:26:27.315Z,10.70
2018-10-03T06:28:54.540Z,10.80
2018-10-03T06:31:21.675Z,10.80
2018-10-03T06:33:48.828Z,10.90
2018-10-03T06:36:15.952Z,10.90
2018-10-03T06:38:43.036Z,11.10
2018-10-03T06:41:10.169Z,11.10
2018-10-03T06:43:37.233Z,11.10
2018-10-03T06:55:52.790Z,11.20
2018-10-03T07:44:52.911Z,11.30
2018-10-03T07:47:20.007Z,12.90
2018-10-03T07:49:47.141Z,13.00
2018-10-03T07:52:14.239Z,13.20
2018-10-03T07:54:41.364Z,13.30
2018-10-03T07:57:08.400Z,13.30
2018-10-03T07:59:35.529Z,13.50
2018-10-03T08:02:02.607Z,13.60
2018-10-03T08:04:29.668Z,13.70
2018-10-03T08:06:56.815Z,13.70
2018-10-03T08:09:23.871Z,13.70
2018-10-03T08:11:50.972Z,13.70
2018-10-03T08:14:18.055Z,13.70
2018-10-03T08:16:45.133Z,13.70
2018-10-03T08:19:12.227Z,13.70
2018-10-03T08:21:39.312Z,13.50
2018-10-03T08:24:06.417Z,13.60
2018-10-03T08:26:33.512Z,13.60
2018-10-03T08:29:00.651Z,13.60
2018-10-03T08:31:27.844Z,13.60
2018-10-03T08:33:54.903Z,13.60
2018-10-03T08:36:22.158Z,13.60
2018-10-03T08:38:49.340Z,13.70
2018-10-03T08:41:16.362Z,13.70
2018-10-03T08:43:43.512Z,13.70
2018-10-03T08:46:10.621Z,13.80
2018-10-03T08:48:37.884Z,13.80
2018-10-03T08:51:05.018Z,13.80
2018-10-03T08:53:32.119Z,13.90
2018-10-03T08:55:59.182Z,13.90
2018-10-03T08:58:26.369Z,14.00
2018-10-03T09:00:53.408Z,14.00
2018-10-03T09:03:20.504Z,14.10
2018-10-03T09:05:47.620Z,14.10
2018-10-03T09:08:15.923Z,14.10
2018-10-03T09:10:44.335Z,14.10
2018-10-03T09:13:12.097Z,14.10
2018-10-03T09:15:39.265Z,14.00
2018-10-03T09:18:07.518Z,14.00
2018-10-03T09:20:34.912Z,13.80
2018-10-03T09:23:02.020Z,13.80
2018-10-03T09:25:29.115Z,13.70
2018-10-03T09:27:56.233Z,13.60
2018-10-03T09:30:23.324Z,13.70
2018-10-03T09:32:53.549Z,13.70
2018-10-03T09:35:20.632Z,13.80
2018-10-03T09:37:47.787Z,13.80
2018-10-03T09:40:14.883Z,13.90
2018-10-03T09:42:41.971Z,14.10
2018-10-03T09:45:09.965Z,14.20
2018-10-03T09:47:37.067Z,14.30
2018-10-03T09:50:04.479Z,14.30
2018-10-03T09:52:31.572Z,14.30
2018-10-03T09:54:58.623Z,14.30
2018-10-03T09:57:25.701Z,14.30
2018-10-03T09:59:52.816Z,14.40
2018-10-03T10:02:19.939Z,14.40
2018-10-03T10:04:47.068Z,14.40
2018-10-03T10:07:14.180Z,14.40
2018-10-03T10:09:41.283Z,14.50
2018-10-03T10:12:08.389Z,14.60
2018-10-03T10:14:35.539Z,14.70
2018-10-03T10:17:02.628Z,14.80
2018-10-03T10:19:30.007Z,15.00
2018-10-03T10:21:57.159Z,15.10
2018-10-03T10:24:24.272Z,15.00
2018-10-03T10:26:51.476Z,14.90
2018-10-03T10:29:18.604Z,14.80
2018-10-03T10:31:45.726Z,14.80
2018-10-03T10:34:12.803Z,14.80
2018-10-03T10:36:39.875Z,14.80
2018-10-03T10:39:09.520Z,14.90
2018-10-03T10:41:36.787Z,14.90
2018-10-03T10:44:03.770Z,14.90
2018-10-03T10:46:30.990Z,14.90
2018-10-03T10:48:58.315Z,14.80
2018-10-03T10:51:25.512Z,14.90
2018-10-03T10:53:52.898Z,14.80
2018-10-03T10:56:20.074Z,14.70
2018-10-03T10:58:47.141Z,14.70
2018-10-03T11:01:14.252Z,14.80
2018-10-03T11:03:41.361Z,14.70
2018-10-03T11:06:08.472Z,14.80
2018-10-03T11:08:35.531Z,14.80
2018-10-03T11:11:02.597Z,14.80
2018-10-03T11:13:29.711Z,14.90
2018-10-03T11:15:56.847Z,14.80
2018-10-03T11:18:23.938Z,14.80
2018-10-03T11:20:51.041Z,14.90
2018-10-03T11:23:21.854Z,14.90
2018-10-03T11:25:48.911Z,15.10
2018-10-03T11:28:16.008Z,15.20
2018-10-03T11:30:43.277Z,15.30
2018-10-03T11:33:10.319Z,15.30
2018-10-03T11:36:40.499Z,15.30
2018-10-03T11:39:08.117Z,15.40
2018-10-03T11:41:35.463Z,15.50
2018-10-03T11:44:02.691Z,15.50
2018-10-03T11:46:29.748Z,15.40
2018-10-03T11:48:56.890Z,15.40
2018-10-03T11:51:23.982Z,15.30
2018-10-03T11:53:51.128Z,15.30
2018-10-03T11:56:18.313Z,15.30
2018-10-03T11:58:45.435Z,15.30
2018-10-03T12:01:12.579Z,15.20
2018-10-03T12:03:39.705Z,15.30
2018-10-03T12:06:06.847Z,15.20
2018-10-03T12:08:33.977Z,15.20
2018-10-03T12:11:01.073Z,15.20
2018-10-03T12:13:28.259Z,15.20
2018-10-03T12:15:55.367Z,15.30
2018-10-03T12:18:22.473Z,15.40
2018-10-03T12:20:49.546Z,15.60
2018-10-03T12:23:16.669Z,15.80
2018-10-03T12:25:43.724Z,15.90
2018-10-03T12:28:10.839Z,16.00
2018-10-03T12:30:38.082Z,16.00
2018-10-03T12:33:05.148Z,15.90
2018-10-03T12:35:32.275Z,15.80
2018-10-03T12:38:01.744Z,15.80
2018-10-03T12:40:29.166Z,15.80
2018-10-03T12:42:56.339Z,15.90
2018-10-03T12:45:23.473Z,16.00
2018-10-03T12:47:50.536Z,16.00
2018-10-03T12:50:17.660Z,16.00
2018-10-03T12:52:44.735Z,16.00
2018-10-03T12:55:11.828Z,16.00
2018-10-03T12:57:38.958Z,16.10
2018-10-03T13:00:06.079Z,16.20
2018-10-03T13:02:33.202Z,16.30
2018-10-03T13:05:00.299Z,16.50
2018-10-03T13:07:27.417Z,16.30
2018-10-03T13:09:54.496Z,16.00
2018-10-03T13:12:21.655Z,16.00
2018-10-03T13:14:48.804Z,15.90
2018-10-03T13:17:15.919Z,15.90
2018-10-03T13:19:43.030Z,15.70
2018-10-03T13:22:10.151Z,15.60
2018-10-03T13:24:37.264Z,15.60
2018-10-03T13:27:04.311Z,15.60
2018-10-03T13:29:31.414Z,15.70
2018-10-03T13:31:58.624Z,15.70
2018-10-03T13:34:25.817Z,15.80
2018-10-03T13:36:52.964Z,16.10
2018-10-03T13:39:20.031Z,16.10
2018-10-03T13:41:47.099Z,16.10
2018-10-03T13:44:14.232Z,16.20
2018-10-03T13:46:41.351Z,16.20
2018-10-03T13:49:08.408Z,16.30
2018-10-03T13:51:35.487Z,16.40
2018-10-03T13:54:02.568Z,16.40
2018-10-03T13:56:29.648Z,16.30
2018-10-03T13:58:56.723Z,16.30
2018-10-03T14:01:23.850Z,16.10
2018-10-03T14:03:50.939Z,16.00
2018-10-03T14:06:18.100Z,15.90
2018-10-03T14:08:45.164Z,15.90
2018-10-03T14:11:12.313Z,15.80
2018-10-03T14:13:39.311Z,15.80
2018-10-03T14:16:06.583Z,15.90
2018-10-03T14:18:33.723Z,15.80
2018-10-03T14:21:00.856Z,15.90
2018-10-03T14:23:28.000Z,15.90
2018-10-03T14:25:55.061Z,15.80
2018-10-03T14:28:22.180Z,15.70
2018-10-03T14:30:49.363Z,15.60
2018-10-03T14:33:16.584Z,15.60
2018-10-03T14:35:43.655Z,15.60
2018-10-03T14:38:10.755Z,15.60
2018-10-03T14:40:37.916Z,15.50
2018-10-03T14:43:04.989Z,15.50
2018-10-03T14:45:32.071Z,15.50
2018-10-03T14:47:59.208Z,15.50
2018-10-03T14:50:26.385Z,15.50
2018-10-03T14:52:53.439Z,15.40
2018-10-03T14:55:20.492Z,15.40
2018-10-03T14:57:47.620Z,15.40
2018-10-03T15:00:14.735Z,15.40
2018-10-03T15:02:41.861Z,15.40
2018-10-03T15:05:08.955Z,15.40
2018-10-03T15:14:34.371Z,15.30
2018-10-03T15:17:01.301Z,15.10
2018-10-03T15:19:28.174Z,15.00
2018-10-03T15:21:55.047Z,15.00
2018-10-03T15:24:25.171Z,14.90
2018-10-03T15:26:51.973Z,14.90
2018-10-03T15:29:18.870Z,14.90
2018-10-03T15:31:45.754Z,14.90
2018-10-03T15:34:12.655Z,14.90
2018-10-03T15:36:39.574Z,14.80
2018-10-03T15:39:07.343Z,14.80
2018-10-03T15:41:34.224Z,14.80
2018-10-03T15:44:01.102Z,14.80
2018-10-03T15:46:28.200Z,14.70
2018-10-03T15:48:55.212Z,14.70
2018-10-03T15:51:22.277Z,14.70
2018-10-03T15:53:49.395Z,14.60
2018-10-03T15:56:16.776Z,14.50
2018-10-03T15:58:43.912Z,14.50
2018-10-03T16:01:10.972Z,14.40
2018-10-03T16:03:38.095Z,14.40
2018-10-03T16:06:05.036Z,14.40
2018-10-03T16:08:32.170Z,14.20
2018-10-03T16:10:59.235Z,14.10
2018-10-03T16:13:26.292Z,14.00
2018-10-03T16:15:53.457Z,13.90
2018-10-03T16:18:20.559Z,13.90
2018-10-03T16:20:47.648Z,13.80
2018-10-03T16:23:14.783Z,13.80
2018-10-03T16:25:41.843Z,13.70
2018-10-03T16:28:08.961Z,13.60
2018-10-03T16:30:36.033Z,13.60
2018-10-03T16:33:03.091Z,13.50
2018-10-03T16:35:30.143Z,13.50
2018-10-03T16:37:57.260Z,13.40
2018-10-03T16:40:24.369Z,13.50
2018-10-03T16:42:51.567Z,13.40
2018-10-03T16:45:19.624Z,13.30
2018-10-03T16:47:46.672Z,13.20
2018-10-03T16:50:14.231Z,13.10
2018-10-03T16:52:41.335Z,13.00
2018-10-03T16:55:08.488Z,12.90
2018-10-03T16:57:35.579Z,12.80
2018-10-03T17:00:04.775Z,12.70
2018-10-03T17:02:31.866Z,12.60
2018-10-03T17:04:58.951Z,12.50
2018-10-03T17:07:26.079Z,12.40
2018-10-03T17:09:53.168Z,12.40
2018-10-03T17:12:20.247Z,12.30
2018-10-03T17:14:47.287Z,12.20
2018-10-03T17:17:14.377Z,12.10
2018-10-03T17:19:41.483Z,12.00
2018-10-03T17:22:08.615Z,11.90
2018-10-03T17:24:36.611Z,11.80
2018-10-03T17:27:03.697Z,11.80
2018-10-03T17:29:30.834Z,11.70
2018-10-03T17:31:58.159Z,11.70
2018-10-03T17:34:25.300Z,11.70
2018-10-03T17:36:56.268Z,11.60
2018-10-03T17:39:24.267Z,11.50
2018-10-03T17:41:52.089Z,11.50
2018-10-03T17:44:19.932Z,11.40
2018-10-03T17:46:48.083Z,11.30
2018-10-03T17:49:15.361Z,11.30
2018-10-03T17:51:42.693Z,11.30
2018-10-03T17:54:09.872Z,11.10
2018-10-03T17:56:37.039Z,11.00
2018-10-03T17:59:04.250Z,11.00
2018-10-03T18:01:33.297Z,10.90
2018-10-03T18:04:00.445Z,10.80
2018-10-03T18:06:27.915Z,10.70
2018-10-03T18:08:55.780Z,10.60
2018-10-03T18:11:23.559Z,10.50
2018-10-03T18:13:51.044Z,10.40
2018-10-03T18:16:18.357Z,10.30
2018-10-03T18:18:45.675Z,10.30
2018-10-03T18:21:13.770Z,10.30
2018-10-03T18:23:41.972Z,10.30
2018-10-03T18:26:10.412Z,10.10
2018-10-03T18:28:39.060Z,10.00
2018-10-03T18:31:14.732Z,9.90
2018-10-03T18:33:43.836Z,9.80
2018-10-03T18:36:13.885Z,9.70
2018-10-03T18:38:42.929Z,9.60
2018-10-03T18:41:11.795Z,9.70
2018-10-03T18:43:40.764Z,9.60
2018-10-03T18:46:09.802Z,9.60
2018-10-03T18:48:38.860Z,9.60
2018-10-03T18:51:08.125Z,9.50
2018-10-03T18:53:37.190Z,9.40
2018-10-03T18:56:06.359Z,9.40
2018-10-03T18:58:35.396Z,9.50
2018-10-03T19:01:04.515Z,9.40
2018-10-03T19:03:33.545Z,9.40
2018-10-03T19:06:02.793Z,9.40
2018-10-03T19:08:35.197Z,9.40
2018-10-03T19:11:04.196Z,9.30
2018-10-03T19:13:34.466Z,9.30
2018-10-03T19:16:03.423Z,9.30
2018-10-03T19:18:32.821Z,9.40
2018-10-03T19:21:02.035Z,9.50
2018-10-03T19:23:31.143Z,9.60
2018-10-03T19:26:01.112Z,9.60
2018-10-03T19:28:30.160Z,9.80
2018-10-03T19:30:59.302Z,9.90
2018-10-03T19:33:28.555Z,10.00
2018-10-03T19:35:57.533Z,10.00
2018-10-03T19:38:26.732Z,10.10
2018-10-03T19:40:55.904Z,10.10
2018-10-03T19:43:25.056Z,10.10
2018-10-03T19:45:54.298Z,10.20
2018-10-03T19:48:23.352Z,10.20
2018-10-03T19:50:53.183Z,10.20
2018-10-03T19:53:27.088Z,10.10
2018-10-03T19:55:56.495Z,10.10
2018-10-03T19:58:25.661Z,10.00
2018-10-03T20:00:54.844Z,9.90
2018-10-03T20:03:24.045Z,9.80
2018-10-03T20:05:53.119Z,9.70
2018-10-03T20:08:22.213Z,9.60
2018-10-03T20:10:51.654Z,9.50
2018-10-03T20:13:21.033Z,9.40
2018-10-03T20:15:50.241Z,9.40
2018-10-03T20:18:19.347Z,9.40
2018-10-03T20:20:48.457Z,9.30
2018-10-03T20:23:17.458Z,9.20
2018-10-03T20:25:47.208Z,9.10
2018-10-03T20:28:16.135Z,9.00
2018-10-03T20:30:45.128Z,8.90
2018-10-03T20:33:14.433Z,8.80
2018-10-03T20:35:43.493Z,8.70
2018-10-03T20:38:12.483Z,8.80
2018-10-03T20:40:41.525Z,8.70
2018-10-03T20:43:10.451Z,8.60
2018-10-03T20:45:39.484Z,8.50
2018-10-03T20:48:09.382Z,8.60
2018-10-03T20:50:38.423Z,8.60
2018-10-03T20:53:07.403Z,8.70
2018-10-03T20:55:36.486Z,8.60
2018-10-03T20:58:05.067Z,8.70
2018-10-03T21:00:32.772Z,8.80
2018-10-03T21:03:00.187Z,8.60
2018-10-03T21:05:27.477Z,8.60
2018-10-03T21:07:54.577Z,8.60
2018-10-03T21:10:21.694Z,8.60
2018-10-03T21:12:48.703Z,8.50
2018-10-03T21:15:15.831Z,8.50
2018-10-03T21:17:42.976Z,8.50
2018-10-03T21:20:10.159Z,8.40
2018-10-03T21:22:37.265Z,8.40
2018-10-03T21:25:04.439Z,8.30
2018-10-03T21:27:31.563Z,8.30
2018-10-03T21:29:58.635Z,8.30
2018-10-03T21:32:25.815Z,8.30
